createdAt,value
2023-02-22T00:00:29.064Z,976.98
2023-02-22T00:01:28.992Z,976.97
2023-02-22T00:02:28.902Z,976.92
2023-02-22T00:03:28.866Z,976.94
2023-02-22T00:04:28.736Z,976.91
2023-02-22T00:05:28.644Z,976.92
2023-02-22T00:06:28.576Z,976.92
2023-02-22T00:07:28.499Z,976.94
2023-02-22T00:08:28.388Z,976.87
2023-02-22T00:09:28.316Z,976.93
2023-02-22T00:10:28.220Z,976.91
2023-02-22T00:11:28.140Z,976.92
2023-02-22T00:12:28.060Z,976.87
2023-02-22T00:13:27.967Z,976.86
2023-02-22T00:14:27.880Z,976.89
2023-02-22T00:15:27.800Z,976.84
2023-02-22T00:16:27.810Z,976.85
2023-02-22T00:17:27.632Z,976.82
2023-02-22T00:18:27.573Z,976.82
2023-02-22T00:19:27.457Z,976.83
2023-02-22T00:20:27.373Z,976.83
2023-02-22T00:21:27.296Z,976.79
2023-02-22T00:22:27.208Z,976.83
2023-02-22T00:23:27.120Z,976.81
2023-02-22T00:24:27.037Z,976.84
2023-02-22T00:25:26.960Z,976.79
2023-02-22T00:26:26.883Z,976.81
2023-02-22T00:27:26.784Z,976.81
2023-02-22T00:28:26.707Z,976.80
2023-02-22T00:29:26.612Z,976.79
2023-02-22T00:30:26.587Z,976.82
2023-02-22T00:31:26.453Z,976.82
2023-02-22T00:32:26.389Z,976.77
2023-02-22T00:33:26.295Z,976.79
2023-02-22T00:34:26.185Z,976.78
2023-02-22T00:35:26.124Z,976.76
2023-02-22T00:36:26.014Z,976.80
2023-02-22T00:37:25.932Z,976.80
2023-02-22T00:38:25.856Z,976.77
2023-02-22T00:39:25.759Z,976.77
2023-02-22T00:40:25.681Z,976.76
2023-02-22T00:41:25.626Z,976.76
2023-02-22T00:42:25.508Z,976.75
2023-02-22T00:43:25.424Z,976.76
2023-02-22T00:44:25.340Z,976.74
2023-02-22T00:45:25.261Z,976.72
2023-02-22T00:46:25.176Z,976.75
2023-02-22T00:47:25.087Z,976.74
2023-02-22T00:48:25.000Z,976.76
2023-02-22T00:49:24.913Z,976.74
2023-02-22T00:50:24.841Z,976.71
2023-02-22T00:51:24.744Z,976.70
2023-02-22T00:52:24.659Z,976.73
2023-02-22T00:53:24.600Z,976.69
2023-02-22T00:54:24.508Z,976.70
2023-02-22T00:55:24.402Z,976.73
2023-02-22T00:56:24.323Z,976.69
2023-02-22T00:57:24.238Z,976.69
2023-02-22T00:58:24.157Z,976.71
2023-02-22T00:59:24.081Z,976.71
2023-02-22T01:00:23.983Z,976.71
2023-02-22T01:01:23.966Z,976.67
2023-02-22T01:02:23.863Z,976.65
2023-02-22T01:03:23.727Z,976.68
2023-02-22T01:04:23.642Z,976.66
2023-02-22T01:05:23.559Z,976.67
2023-02-22T01:06:23.468Z,976.66
2023-02-22T01:07:23.387Z,976.62
2023-02-22T01:08:23.307Z,976.62
2023-02-22T01:09:23.217Z,976.61
2023-02-22T01:10:23.130Z,976.60
2023-02-22T01:11:23.046Z,976.61
2023-02-22T01:12:22.966Z,976.59
2023-02-22T01:13:22.876Z,976.57
2023-02-22T01:14:22.794Z,976.57
2023-02-22T01:15:22.706Z,976.55
2023-02-22T01:16:22.656Z,976.55
2023-02-22T01:17:22.535Z,976.52
2023-02-22T01:18:22.450Z,976.53
2023-02-22T01:19:22.363Z,976.52
2023-02-22T01:20:22.278Z,976.49
2023-02-22T01:21:22.195Z,976.48
2023-02-22T01:22:22.110Z,976.49
2023-02-22T01:23:22.026Z,976.50
2023-02-22T01:24:21.945Z,976.51
2023-02-22T01:25:21.856Z,976.46
2023-02-22T01:26:21.767Z,976.50
2023-02-22T01:27:21.684Z,976.47
2023-02-22T01:28:21.596Z,976.47
2023-02-22T01:29:21.516Z,976.48
2023-02-22T01:30:21.441Z,976.46
2023-02-22T01:31:21.394Z,976.44
2023-02-22T01:32:21.371Z,976.41
2023-02-22T01:33:21.178Z,976.41
2023-02-22T01:34:21.087Z,976.40
2023-02-22T01:35:21.009Z,976.44
2023-02-22T01:36:20.917Z,976.41
2023-02-22T01:37:20.830Z,976.38
2023-02-22T01:38:20.749Z,976.39
2023-02-22T01:39:20.662Z,976.42
2023-02-22T01:40:20.606Z,976.43
2023-02-22T01:41:20.492Z,976.42
2023-02-22T01:42:20.403Z,976.42
2023-02-22T01:43:20.334Z,976.40
2023-02-22T01:44:20.233Z,976.40
2023-02-22T01:45:20.147Z,976.45
2023-02-22T01:46:20.091Z,976.42
2023-02-22T01:47:19.983Z,976.41
2023-02-22T01:48:19.894Z,976.42
2023-02-22T01:49:19.810Z,976.38
2023-02-22T01:50:19.727Z,976.37
2023-02-22T01:51:19.763Z,976.33
2023-02-22T01:52:19.557Z,976.35
2023-02-22T01:53:19.470Z,976.33
2023-02-22T01:54:19.384Z,976.32
2023-02-22T01:55:19.298Z,976.32
2023-02-22T01:56:19.235Z,976.27
2023-02-22T01:57:19.135Z,976.27
2023-02-22T01:58:19.041Z,976.27
2023-02-22T01:59:18.953Z,976.23
2023-02-22T02:00:18.868Z,976.24
2023-02-22T02:01:19.127Z,976.20
2023-02-22T02:02:18.699Z,976.19
2023-02-22T02:03:18.612Z,976.16
2023-02-22T02:04:18.536Z,976.16
2023-02-22T02:05:18.465Z,976.11
2023-02-22T02:06:18.358Z,976.15
2023-02-22T02:07:18.272Z,976.11
2023-02-22T02:08:18.184Z,976.10
2023-02-22T02:09:18.102Z,976.06
2023-02-22T02:10:18.022Z,976.07
2023-02-22T02:11:18.298Z,976.07
2023-02-22T02:12:17.848Z,976.09
2023-02-22T02:13:17.763Z,976.08
2023-02-22T02:14:17.678Z,976.06
2023-02-22T02:15:17.592Z,976.05
2023-02-22T02:16:17.513Z,976.06
2023-02-22T02:17:17.424Z,976.04
2023-02-22T02:18:17.335Z,976.04
2023-02-22T02:19:17.249Z,976.05
2023-02-22T02:20:17.167Z,976.01
2023-02-22T02:21:17.435Z,976.03
2023-02-22T02:22:16.995Z,976.02
2023-02-22T02:23:16.910Z,976.02
2023-02-22T02:24:16.827Z,976.02
2023-02-22T02:25:16.736Z,976.01
2023-02-22T02:26:16.654Z,975.97
2023-02-22T02:27:16.572Z,975.97
2023-02-22T02:28:16.497Z,975.97
2023-02-22T02:29:16.398Z,975.98
2023-02-22T02:30:16.325Z,975.96
2023-02-22T02:31:16.600Z,975.95
2023-02-22T02:32:16.276Z,975.99
2023-02-22T02:33:16.050Z,975.98
2023-02-22T02:34:15.967Z,975.96
2023-02-22T02:35:15.883Z,975.95
2023-02-22T02:36:15.795Z,975.96
2023-02-22T02:37:15.714Z,975.97
2023-02-22T02:38:15.629Z,975.97
2023-02-22T02:39:15.539Z,975.96
2023-02-22T02:40:15.538Z,975.94
2023-02-22T02:41:15.765Z,975.89
2023-02-22T02:42:15.288Z,975.94
2023-02-22T02:43:15.219Z,975.92
2023-02-22T02:44:15.119Z,975.91
2023-02-22T02:45:15.025Z,975.91
2023-02-22T02:46:14.944Z,975.87
2023-02-22T02:47:14.889Z,975.88
2023-02-22T02:48:14.773Z,975.90
2023-02-22T02:49:14.684Z,975.91
2023-02-22T02:50:14.599Z,975.91
2023-02-22T02:51:14.842Z,975.88
2023-02-22T02:52:14.452Z,975.91
2023-02-22T02:53:14.346Z,975.91
2023-02-22T02:54:14.269Z,975.87
2023-02-22T02:55:14.178Z,975.84
2023-02-22T02:56:14.122Z,975.87
2023-02-22T02:57:14.005Z,975.82
2023-02-22T02:58:13.922Z,975.80
2023-02-22T02:59:13.830Z,975.81
2023-02-22T03:00:13.752Z,975.82
2023-02-22T03:01:13.738Z,975.79
2023-02-22T03:02:13.585Z,975.82
2023-02-22T03:03:13.493Z,975.83
2023-02-22T03:04:13.412Z,975.78
2023-02-22T03:05:13.326Z,975.78
2023-02-22T03:06:13.234Z,975.77
2023-02-22T03:07:13.187Z,975.79
2023-02-22T03:08:13.065Z,975.79
2023-02-22T03:09:12.981Z,975.79
2023-02-22T03:10:12.893Z,975.76
2023-02-22T03:11:12.803Z,975.79
2023-02-22T03:12:12.725Z,975.77
2023-02-22T03:13:12.644Z,975.78
2023-02-22T03:14:12.557Z,975.77
2023-02-22T03:15:12.481Z,975.80
2023-02-22T03:16:12.484Z,975.82
2023-02-22T03:17:12.294Z,975.73
2023-02-22T03:18:12.215Z,975.80
2023-02-22T03:19:12.125Z,975.80
2023-02-22T03:20:12.041Z,975.76
2023-02-22T03:21:11.969Z,975.75
2023-02-22T03:22:11.869Z,975.77
2023-02-22T03:23:11.782Z,975.76
2023-02-22T03:24:11.706Z,975.75
2023-02-22T03:25:11.611Z,975.77
2023-02-22T03:26:11.528Z,975.71
2023-02-22T03:27:11.441Z,975.72
2023-02-22T03:28:11.356Z,975.72
2023-02-22T03:29:11.276Z,975.69
2023-02-22T03:30:11.211Z,975.72
2023-02-22T03:31:11.145Z,975.66
2023-02-22T03:32:11.041Z,975.69
2023-02-22T03:33:10.928Z,975.65
2023-02-22T03:34:10.844Z,975.64
2023-02-22T03:35:10.758Z,975.66
2023-02-22T03:36:10.671Z,975.65
2023-02-22T03:37:10.586Z,975.62
2023-02-22T03:38:10.503Z,975.60
2023-02-22T03:39:10.414Z,975.64
2023-02-22T03:40:10.329Z,975.60
2023-02-22T03:41:10.244Z,975.62
2023-02-22T03:42:10.168Z,975.62
2023-02-22T03:43:10.073Z,975.64
2023-02-22T03:44:09.988Z,975.61
2023-02-22T03:45:09.938Z,975.63
2023-02-22T03:46:09.843Z,975.63
2023-02-22T03:47:09.732Z,975.61
2023-02-22T03:48:09.649Z,975.65
2023-02-22T03:49:09.562Z,975.63
2023-02-22T03:50:09.506Z,975.62
2023-02-22T03:51:09.385Z,975.64
2023-02-22T03:52:09.302Z,975.60
2023-02-22T03:53:09.214Z,975.61
2023-02-22T03:54:09.138Z,975.60
2023-02-22T03:55:09.042Z,975.61
2023-02-22T03:56:08.960Z,975.62
2023-02-22T03:57:08.876Z,975.63
2023-02-22T03:58:08.788Z,975.62
2023-02-22T03:59:08.698Z,975.60
2023-02-22T04:00:08.637Z,975.59
2023-02-22T04:01:08.528Z,975.62
2023-02-22T04:02:08.445Z,975.62
2023-02-22T04:03:08.400Z,975.62
2023-02-22T04:04:08.290Z,975.62
2023-02-22T04:05:08.183Z,975.59
2023-02-22T04:06:08.114Z,975.59
2023-02-22T04:07:08.013Z,975.59
2023-02-22T04:08:07.938Z,975.58
2023-02-22T04:09:07.840Z,975.58
2023-02-22T04:10:07.755Z,975.60
2023-02-22T04:11:07.670Z,975.61
2023-02-22T04:12:07.584Z,975.62
2023-02-22T04:13:07.499Z,975.56
2023-02-22T04:14:07.423Z,975.57
2023-02-22T04:15:07.348Z,975.49
2023-02-22T04:16:07.266Z,975.53
2023-02-22T04:17:07.164Z,975.52
2023-02-22T04:18:07.083Z,975.53
2023-02-22T04:19:06.992Z,975.49
2023-02-22T04:20:06.908Z,975.50
2023-02-22T04:21:06.824Z,975.47
2023-02-22T04:22:06.735Z,975.48
2023-02-22T04:23:06.645Z,975.46
2023-02-22T04:24:06.563Z,975.43
2023-02-22T04:25:06.477Z,975.44
2023-02-22T04:26:06.391Z,975.44
2023-02-22T04:27:06.301Z,975.44
2023-02-22T04:28:06.218Z,975.44
2023-02-22T04:29:06.134Z,975.40
2023-02-22T04:30:06.077Z,975.45
2023-02-22T04:31:06.003Z,975.46
2023-02-22T04:32:05.936Z,975.41
2023-02-22T04:33:05.786Z,975.38
2023-02-22T04:34:05.709Z,975.37
2023-02-22T04:35:05.619Z,975.39
2023-02-22T04:36:05.540Z,975.41
2023-02-22T04:37:05.446Z,975.38
2023-02-22T04:38:05.370Z,975.37
2023-02-22T04:39:05.275Z,975.40
2023-02-22T04:40:05.193Z,975.38
2023-02-22T04:41:05.101Z,975.36
2023-02-22T04:42:05.016Z,975.39
2023-02-22T04:43:04.938Z,975.41
2023-02-22T04:44:04.841Z,975.38
2023-02-22T04:45:04.765Z,975.38
2023-02-22T04:46:04.795Z,975.38
2023-02-22T04:47:04.596Z,975.32
2023-02-22T04:48:04.500Z,975.31
2023-02-22T04:49:04.431Z,975.28
2023-02-22T04:50:04.334Z,975.31
2023-02-22T04:51:04.236Z,975.27
2023-02-22T04:52:04.155Z,975.25
2023-02-22T04:53:04.072Z,975.26
2023-02-22T04:54:03.988Z,975.24
2023-02-22T04:55:03.896Z,975.26
2023-02-22T04:56:03.815Z,975.27
2023-02-22T04:57:03.723Z,975.24
2023-02-22T04:58:03.649Z,975.28
2023-02-22T04:59:03.549Z,975.27
2023-02-22T05:00:03.482Z,975.25
2023-02-22T05:01:03.378Z,975.28
2023-02-22T05:02:03.292Z,975.29
2023-02-22T05:03:03.211Z,975.28
2023-02-22T05:04:03.120Z,975.26
2023-02-22T05:05:03.169Z,975.23
2023-02-22T05:06:02.972Z,975.25
2023-02-22T05:07:02.861Z,975.25
2023-02-22T05:08:02.781Z,975.25
2023-02-22T05:09:02.693Z,975.27
2023-02-22T05:10:02.610Z,975.30
2023-02-22T05:11:02.522Z,975.32
2023-02-22T05:12:02.434Z,975.30
2023-02-22T05:13:04.115Z,975.29
2023-02-22T05:14:02.289Z,975.28
2023-02-22T05:15:02.187Z,975.27
2023-02-22T05:16:02.160Z,975.23
2023-02-22T05:17:02.000Z,975.26
2023-02-22T05:18:01.927Z,975.22
2023-02-22T05:19:01.840Z,975.17
2023-02-22T05:20:01.749Z,975.20
2023-02-22T05:21:01.662Z,975.18
2023-02-22T05:22:01.570Z,975.20
2023-02-22T05:23:01.486Z,975.18
2023-02-22T05:24:01.405Z,975.20
2023-02-22T05:25:01.312Z,975.21
2023-02-22T05:26:01.230Z,975.21
2023-02-22T05:27:01.146Z,975.19
2023-02-22T05:28:01.058Z,975.20
2023-02-22T05:29:00.973Z,975.17
2023-02-22T05:30:00.883Z,975.16
2023-02-22T05:31:00.846Z,975.16
2023-02-22T05:32:00.780Z,975.14
2023-02-22T05:33:00.631Z,975.13
2023-02-22T05:34:00.543Z,975.19
2023-02-22T05:35:00.455Z,975.14
2023-02-22T05:36:00.374Z,975.15
2023-02-22T05:37:00.933Z,975.15
2023-02-22T05:38:00.200Z,975.17
2023-02-22T05:39:00.603Z,975.19
2023-02-22T05:40:00.032Z,975.14
2023-02-22T05:40:59.938Z,975.16
2023-02-22T05:41:59.856Z,975.17
2023-02-22T05:42:59.775Z,975.14
2023-02-22T05:43:59.683Z,975.18
2023-02-22T05:44:59.599Z,975.14
2023-02-22T05:45:59.510Z,975.13
2023-02-22T05:46:59.421Z,975.11
2023-02-22T05:47:59.348Z,975.11
2023-02-22T05:48:59.249Z,975.11
2023-02-22T05:49:59.165Z,975.09
2023-02-22T05:50:59.077Z,975.10
2023-02-22T05:51:58.996Z,975.08
2023-02-22T05:52:58.902Z,975.06
2023-02-22T05:53:58.826Z,975.07
2023-02-22T05:54:58.730Z,975.07
2023-02-22T05:55:58.648Z,975.09
2023-02-22T05:56:58.562Z,975.08
2023-02-22T05:57:58.476Z,975.03
2023-02-22T05:58:58.417Z,975.07
2023-02-22T05:59:58.301Z,975.08
2023-02-22T06:00:58.216Z,975.09
2023-02-22T06:01:58.193Z,975.09
2023-02-22T06:02:58.045Z,975.07
2023-02-22T06:03:57.956Z,975.05
2023-02-22T06:04:57.869Z,975.08
2023-02-22T06:05:57.780Z,975.08
2023-02-22T06:06:57.693Z,975.12
2023-02-22T06:07:57.611Z,975.09
2023-02-22T06:08:57.520Z,975.07
2023-02-22T06:09:57.435Z,975.10
2023-02-22T06:10:57.424Z,975.14
2023-02-22T06:11:57.265Z,975.13
2023-02-22T06:12:57.186Z,975.15
2023-02-22T06:13:57.112Z,975.19
2023-02-22T06:14:57.005Z,975.18
2023-02-22T06:15:56.957Z,975.19
2023-02-22T06:16:56.835Z,975.21
2023-02-22T06:17:56.753Z,975.20
2023-02-22T06:18:56.661Z,975.18
2023-02-22T06:19:56.574Z,975.21
2023-02-22T06:20:56.491Z,975.22
2023-02-22T06:21:56.409Z,975.25
2023-02-22T06:22:56.319Z,975.25
2023-02-22T06:23:56.236Z,975.26
2023-02-22T06:24:56.144Z,975.27
2023-02-22T06:25:56.061Z,975.28
2023-02-22T06:26:55.968Z,975.30
2023-02-22T06:27:55.886Z,975.26
2023-02-22T06:28:55.798Z,975.28
2023-02-22T06:29:55.709Z,975.30
2023-02-22T06:30:55.631Z,975.33
2023-02-22T06:31:55.638Z,975.33
2023-02-22T06:32:55.454Z,975.30
2023-02-22T06:33:55.368Z,975.31
2023-02-22T06:34:55.285Z,975.35
2023-02-22T06:35:55.192Z,975.35
2023-02-22T06:36:55.117Z,975.33
2023-02-22T06:37:55.030Z,975.35
2023-02-22T06:38:54.939Z,975.34
2023-02-22T06:39:54.858Z,975.36
2023-02-22T06:40:54.773Z,975.35
2023-02-22T06:41:54.717Z,975.34
2023-02-22T06:42:54.602Z,975.33
2023-02-22T06:43:54.504Z,975.32
2023-02-22T06:44:54.445Z,975.36
2023-02-22T06:45:54.381Z,975.34
2023-02-22T06:46:54.247Z,975.33
2023-02-22T06:47:54.163Z,975.35
2023-02-22T06:48:54.081Z,975.36
2023-02-22T06:49:53.987Z,975.39
2023-02-22T06:50:53.905Z,975.36
2023-02-22T06:51:53.817Z,975.37
2023-02-22T06:52:53.731Z,975.34
2023-02-22T06:53:53.646Z,975.35
2023-02-22T06:54:53.572Z,975.35
2023-02-22T06:55:53.474Z,975.33
2023-02-22T06:56:53.384Z,975.35
2023-02-22T06:57:53.309Z,975.35
2023-02-22T06:58:53.212Z,975.33
2023-02-22T06:59:53.212Z,975.33
2023-02-22T07:00:53.161Z,975.32
2023-02-22T07:01:52.966Z,975.30
2023-02-22T07:02:52.874Z,975.31
2023-02-22T07:03:52.785Z,975.30
2023-02-22T07:04:52.720Z,975.32
2023-02-22T07:05:52.617Z,975.31
2023-02-22T07:06:52.541Z,975.31
2023-02-22T07:07:52.442Z,975.28
2023-02-22T07:08:52.356Z,975.34
2023-02-22T07:09:52.272Z,975.30
2023-02-22T07:10:52.187Z,975.31
2023-02-22T07:11:52.099Z,975.32
2023-02-22T07:12:52.015Z,975.32
2023-02-22T07:13:51.939Z,975.31
2023-02-22T07:14:51.846Z,975.31
2023-02-22T07:15:51.769Z,975.25
2023-02-22T07:16:51.674Z,975.27
2023-02-22T07:17:51.583Z,975.25
2023-02-22T07:18:51.501Z,975.27
2023-02-22T07:19:51.461Z,975.30
2023-02-22T07:20:51.327Z,975.23
2023-02-22T07:21:51.240Z,975.24
2023-02-22T07:22:51.156Z,975.27
2023-02-22T07:23:51.070Z,975.29
2023-02-22T07:24:50.985Z,975.26
2023-02-22T07:25:50.898Z,975.28
2023-02-22T07:26:50.815Z,975.26
2023-02-22T07:27:50.726Z,975.23
2023-02-22T07:28:50.641Z,975.23
2023-02-22T07:29:50.554Z,975.24
2023-02-22T07:30:50.474Z,975.24
2023-02-22T07:31:50.499Z,975.24
2023-02-22T07:32:50.362Z,975.23
2023-02-22T07:33:50.212Z,975.25
2023-02-22T07:34:50.124Z,975.25
2023-02-22T07:35:50.041Z,975.23
2023-02-22T07:36:49.981Z,975.25
2023-02-22T07:37:49.865Z,975.23
2023-02-22T07:38:49.793Z,975.27
2023-02-22T07:39:49.701Z,975.25
2023-02-22T07:40:49.633Z,975.29
2023-02-22T07:41:49.524Z,975.25
2023-02-22T07:42:49.450Z,975.28
2023-02-22T07:43:49.353Z,975.27
2023-02-22T07:44:49.270Z,975.27
2023-02-22T07:45:49.263Z,975.28
2023-02-22T07:46:49.093Z,975.28
2023-02-22T07:47:49.013Z,975.28
2023-02-22T07:48:48.930Z,975.29
2023-02-22T07:49:48.839Z,975.27
2023-02-22T07:50:48.756Z,975.29
2023-02-22T07:51:48.671Z,975.28
2023-02-22T07:52:48.588Z,975.28
2023-02-22T07:53:48.496Z,975.27
2023-02-22T07:54:48.419Z,975.23
2023-02-22T07:55:48.325Z,975.21
2023-02-22T07:56:48.245Z,975.22
2023-02-22T07:57:48.155Z,975.21
2023-02-22T07:58:48.069Z,975.20
2023-02-22T07:59:47.982Z,975.20
2023-02-22T08:00:47.901Z,975.20
2023-02-22T08:01:47.817Z,975.18
2023-02-22T08:02:47.889Z,975.16
2023-02-22T08:03:47.811Z,975.17
2023-02-22T08:04:47.557Z,975.15
2023-02-22T08:05:47.470Z,975.17
2023-02-22T08:06:47.392Z,975.16
2023-02-22T08:07:47.313Z,975.15
2023-02-22T08:08:47.217Z,975.17
2023-02-22T08:09:47.132Z,975.16
2023-02-22T08:10:47.049Z,975.13
2023-02-22T08:11:46.958Z,975.15
2023-02-22T08:12:46.877Z,975.09
2023-02-22T08:13:46.798Z,975.13
2023-02-22T08:14:46.712Z,975.11
2023-02-22T08:15:46.617Z,975.10
2023-02-22T08:16:46.557Z,975.11
2023-02-22T08:17:46.451Z,975.10
2023-02-22T08:18:46.364Z,975.11
2023-02-22T08:19:46.298Z,975.10
2023-02-22T08:20:46.193Z,975.07
2023-02-22T08:21:46.114Z,975.11
2023-02-22T08:22:46.043Z,975.07
2023-02-22T08:23:45.945Z,975.12
2023-02-22T08:24:45.859Z,975.05
2023-02-22T08:25:45.776Z,975.05
2023-02-22T08:26:45.706Z,975.07
2023-02-22T08:27:45.599Z,975.07
2023-02-22T08:28:45.521Z,975.05
2023-02-22T08:29:45.433Z,975.07
2023-02-22T08:30:45.406Z,975.05
2023-02-22T08:31:45.372Z,975.02
2023-02-22T08:32:45.313Z,975.03
2023-02-22T08:33:45.094Z,975.02
2023-02-22T08:34:45.017Z,975.04
2023-02-22T08:35:44.928Z,975.06
2023-02-22T08:36:44.848Z,975.03
2023-02-22T08:37:44.756Z,975.02
2023-02-22T08:38:44.668Z,975.00
2023-02-22T08:39:44.581Z,974.98
2023-02-22T08:40:44.503Z,975.01
2023-02-22T08:41:44.422Z,975.00
2023-02-22T08:42:44.340Z,974.97
2023-02-22T08:43:44.243Z,974.94
2023-02-22T08:44:44.175Z,974.93
2023-02-22T08:45:44.096Z,974.96
2023-02-22T08:46:44.004Z,974.94
2023-02-22T08:47:43.922Z,974.96
2023-02-22T08:48:43.840Z,974.92
2023-02-22T08:49:43.744Z,974.94
2023-02-22T08:50:43.655Z,974.96
2023-02-22T08:51:43.576Z,974.97
2023-02-22T08:52:43.489Z,974.96
2023-02-22T08:53:43.403Z,974.98
2023-02-22T08:54:43.323Z,975.00
2023-02-22T08:55:43.234Z,975.01
2023-02-22T08:56:43.157Z,974.98
2023-02-22T08:57:43.083Z,975.01
2023-02-22T08:58:42.986Z,975.01
2023-02-22T08:59:42.926Z,975.00
2023-02-22T09:00:42.821Z,974.99
2023-02-22T09:01:42.776Z,974.98
2023-02-22T09:02:42.657Z,974.95
2023-02-22T09:03:42.676Z,975.01
2023-02-22T09:04:42.492Z,974.99
2023-02-22T09:05:42.452Z,974.95
2023-02-22T09:06:42.326Z,974.98
2023-02-22T09:07:42.251Z,974.97
2023-02-22T09:08:42.154Z,975.00
2023-02-22T09:09:42.073Z,974.98
2023-02-22T09:10:41.997Z,974.97
2023-02-22T09:11:41.900Z,974.98
2023-02-22T09:12:41.825Z,974.96
2023-02-22T09:13:41.739Z,974.94
2023-02-22T09:14:41.652Z,974.96
2023-02-22T09:15:41.570Z,974.98
2023-02-22T09:16:41.517Z,974.99
2023-02-22T09:17:41.407Z,974.98
2023-02-22T09:18:44.192Z,975.01
2023-02-22T09:19:41.247Z,975.00
2023-02-22T09:20:41.156Z,975.01
2023-02-22T09:21:41.081Z,974.94
2023-02-22T09:22:40.997Z,974.97
2023-02-22T09:23:40.906Z,974.95
2023-02-22T09:24:40.835Z,974.93
2023-02-22T09:25:40.780Z,974.96
2023-02-22T09:26:40.701Z,974.92
2023-02-22T09:27:40.576Z,974.92
2023-02-22T09:28:40.503Z,974.94
2023-02-22T09:29:40.430Z,974.94
2023-02-22T09:30:40.359Z,974.90
2023-02-22T09:31:40.341Z,974.92
2023-02-22T09:32:40.405Z,974.95
2023-02-22T09:33:40.080Z,974.93
2023-02-22T09:34:40.011Z,974.92
2023-02-22T09:35:39.960Z,974.96
2023-02-22T09:36:39.837Z,974.95
2023-02-22T09:37:39.772Z,974.95
2023-02-22T09:38:39.674Z,974.97
2023-02-22T09:39:39.616Z,974.98
2023-02-22T09:40:39.514Z,974.93
2023-02-22T09:41:39.428Z,974.91
2023-02-22T09:42:39.346Z,974.91
2023-02-22T09:43:39.262Z,974.89
2023-02-22T09:44:39.190Z,974.90
2023-02-22T09:45:39.139Z,974.85
2023-02-22T09:46:39.021Z,974.85
2023-02-22T09:47:38.987Z,974.84
2023-02-22T09:48:38.855Z,974.82
2023-02-22T09:49:38.789Z,974.81
2023-02-22T09:50:38.703Z,974.80
2023-02-22T09:51:38.610Z,974.79
2023-02-22T09:52:38.532Z,974.84
2023-02-22T09:53:38.451Z,974.81
2023-02-22T09:54:38.374Z,974.82
2023-02-22T09:55:38.365Z,974.78
2023-02-22T09:56:38.210Z,974.82
2023-02-22T09:57:38.128Z,974.79
2023-02-22T09:58:40.176Z,974.82
2023-02-22T09:59:37.962Z,974.82
2023-02-22T10:00:37.892Z,974.81
2023-02-22T10:01:37.806Z,974.79
2023-02-22T10:02:37.725Z,974.73
2023-02-22T10:03:37.685Z,974.74
2023-02-22T10:04:37.571Z,974.75
2023-02-22T10:05:37.519Z,974.75
2023-02-22T10:06:37.405Z,974.69
2023-02-22T10:07:37.326Z,974.68
2023-02-22T10:08:37.238Z,974.67
2023-02-22T10:09:37.169Z,974.73
2023-02-22T10:10:37.093Z,974.70
2023-02-22T10:11:37.012Z,974.69
2023-02-22T10:12:36.923Z,974.71
2023-02-22T10:13:36.840Z,974.72
2023-02-22T10:14:36.769Z,974.73
2023-02-22T10:15:36.682Z,974.73
2023-02-22T10:16:36.646Z,974.69
2023-02-22T10:17:36.526Z,974.74
2023-02-22T10:18:36.454Z,974.71
2023-02-22T10:19:36.359Z,974.68
2023-02-22T10:20:36.284Z,974.70
2023-02-22T10:21:36.209Z,974.70
2023-02-22T10:22:36.122Z,974.69
2023-02-22T10:23:36.044Z,974.67
2023-02-22T10:24:35.966Z,974.68
2023-02-22T10:25:35.888Z,974.66
2023-02-22T10:26:35.804Z,974.65
2023-02-22T10:27:35.732Z,974.66
2023-02-22T10:28:35.650Z,974.61
2023-02-22T10:29:35.566Z,974.67
2023-02-22T10:30:35.538Z,974.64
2023-02-22T10:31:35.472Z,974.65
2023-02-22T10:32:35.344Z,974.61
2023-02-22T10:33:35.257Z,974.60
2023-02-22T10:34:35.174Z,974.58
2023-02-22T10:35:35.107Z,974.58
2023-02-22T10:36:35.018Z,974.56
2023-02-22T10:37:34.943Z,974.54
2023-02-22T10:38:34.854Z,974.57
2023-02-22T10:39:34.809Z,974.55
2023-02-22T10:40:34.701Z,974.55
2023-02-22T10:41:34.629Z,974.53
2023-02-22T10:42:34.544Z,974.54
2023-02-22T10:43:34.484Z,974.55
2023-02-22T10:44:34.389Z,974.54
2023-02-22T10:45:34.330Z,974.55
2023-02-22T10:46:34.224Z,974.48
2023-02-22T10:47:34.157Z,974.51
2023-02-22T10:48:34.076Z,974.52
2023-02-22T10:49:34.004Z,974.51
2023-02-22T10:50:33.915Z,974.50
2023-02-22T10:51:33.868Z,974.51
2023-02-22T10:52:33.761Z,974.51
2023-02-22T10:53:36.331Z,974.52
2023-02-22T10:54:33.618Z,974.50
2023-02-22T10:55:33.528Z,974.51
2023-02-22T10:56:33.442Z,974.50
2023-02-22T10:57:33.368Z,974.50
2023-02-22T10:58:33.291Z,974.48
2023-02-22T10:59:33.271Z,974.51
2023-02-22T11:00:33.129Z,974.53
2023-02-22T11:01:33.190Z,974.51
2023-02-22T11:02:32.998Z,974.50
2023-02-22T11:03:32.898Z,974.51
2023-02-22T11:04:32.822Z,974.47
2023-02-22T11:05:32.745Z,974.46
2023-02-22T11:06:32.666Z,974.46
2023-02-22T11:07:32.597Z,974.45
2023-02-22T11:08:32.511Z,974.46
2023-02-22T11:09:32.431Z,974.45
2023-02-22T11:10:32.352Z,974.42
2023-02-22T11:11:32.284Z,974.40
2023-02-22T11:12:32.193Z,974.41
2023-02-22T11:13:32.121Z,974.38
2023-02-22T11:14:32.042Z,974.36
2023-02-22T11:15:32.064Z,974.36
2023-02-22T11:16:31.965Z,974.38
2023-02-22T11:17:31.805Z,974.36
2023-02-22T11:18:31.723Z,974.36
2023-02-22T11:19:31.653Z,974.33
2023-02-22T11:20:31.568Z,974.33
2023-02-22T11:21:31.490Z,974.34
2023-02-22T11:22:31.411Z,974.34
2023-02-22T11:23:31.338Z,974.34
2023-02-22T11:24:43.579Z,974.30
2023-02-22T11:25:31.181Z,974.30
2023-02-22T11:26:31.104Z,974.30
2023-02-22T11:27:31.027Z,974.29
2023-02-22T11:28:31.290Z,974.25
2023-02-22T11:29:30.875Z,974.28
2023-02-22T11:30:30.911Z,974.28
2023-02-22T11:31:30.805Z,974.24
2023-02-22T11:32:30.636Z,974.26
2023-02-22T11:33:30.562Z,974.23
2023-02-22T11:34:30.480Z,974.21
2023-02-22T11:35:30.417Z,974.22
2023-02-22T11:36:30.329Z,974.20
2023-02-22T11:37:30.261Z,974.15
2023-02-22T11:38:30.177Z,974.16
2023-02-22T11:39:30.167Z,974.11
2023-02-22T11:40:30.013Z,974.10
2023-02-22T11:41:29.942Z,974.09
2023-02-22T11:42:29.860Z,974.07
2023-02-22T11:43:29.782Z,974.06
2023-02-22T11:44:29.706Z,974.02
2023-02-22T11:45:29.634Z,974.01
2023-02-22T11:46:29.583Z,974.02
2023-02-22T11:47:29.478Z,973.98
2023-02-22T11:48:29.397Z,974.03
2023-02-22T11:49:29.319Z,973.97
2023-02-22T11:50:29.262Z,973.97
2023-02-22T11:51:29.168Z,973.96
2023-02-22T11:52:29.097Z,973.95
2023-02-22T11:53:29.010Z,973.95
2023-02-22T11:54:29.028Z,973.90
2023-02-22T11:55:41.752Z,973.95
2023-02-22T11:56:37.693Z,973.92
2023-02-22T11:57:28.702Z,973.90
2023-02-22T11:58:28.626Z,973.91
2023-02-22T11:59:28.549Z,973.86
2023-02-22T12:00:28.474Z,973.88
2023-02-22T12:01:28.395Z,973.85
2023-02-22T12:02:28.316Z,973.87
2023-02-22T12:03:28.895Z,973.86
2023-02-22T12:04:28.271Z,973.82
2023-02-22T12:05:28.089Z,973.79
2023-02-22T12:06:28.007Z,973.80
2023-02-22T12:07:27.940Z,973.76
2023-02-22T12:08:27.861Z,973.77
2023-02-22T12:09:27.780Z,973.77
2023-02-22T12:10:27.712Z,973.78
2023-02-22T12:11:27.634Z,973.77
2023-02-22T12:12:27.549Z,973.75
2023-02-22T12:13:27.473Z,973.72
2023-02-22T12:14:27.399Z,973.71
2023-02-22T12:15:27.341Z,973.70
2023-02-22T12:16:27.238Z,973.72
2023-02-22T12:17:27.170Z,973.69
2023-02-22T12:18:27.090Z,973.64
2023-02-22T12:19:27.034Z,973.61
2023-02-22T12:20:26.935Z,973.60
2023-02-22T12:21:26.860Z,973.62
2023-02-22T12:22:26.786Z,973.61
2023-02-22T12:23:26.708Z,973.60
2023-02-22T12:24:26.626Z,973.58
2023-02-22T12:25:26.562Z,973.55
2023-02-22T12:26:26.484Z,973.54
2023-02-22T12:27:26.416Z,973.49